Time;durP1;ratioP1;P1;durP2;ratioP2;P2;SDS_P1;SDS_P2;PMS_P1;PMS_P2;Temp;Humidity;BMP_temperature;BMP_pressure;BME280_temperature;BME280_humidity;BME280_pressure;Samples;Min_cycle;Max_cycle;Signal;HPM_P1;HPM_P2
2023/01/26 00:01:50;;;;;;;21.43;19.10;;;;;;;0.80;100.00;100986.78;5013271;28;20231;-75
2023/01/26 00:04:15;;;;;;;21.63;19.20;;;;;;;0.79;100.00;100979.94;5024026;28;20593;-73
2023/01/26 00:06:40;;;;;;;21.67;19.33;;;;;;;0.78;100.00;100980.75;5032785;28;20194;-74
2023/01/26 00:09:11;;;;;;;21.73;19.43;;;;;;;0.79;100.00;100967.19;5037810;28;20182;-75
2023/01/26 00:11:36;;;;;;;24.30;20.57;;;;;;;0.78;100.00;100968.00;5032656;28;20207;-73
2023/01/26 00:14:02;;;;;;;21.37;19.10;;;;;;;0.77;100.00;100967.13;5022107;28;20737;-73
2023/01/26 00:16:27;;;;;;;20.97;18.77;;;;;;;0.76;100.00;100957.75;5016227;28;20195;-74
2023/01/26 00:18:53;;;;;;;22.87;18.77;;;;;;;0.77;100.00;100959.50;5019507;28;20181;-75
2023/01/26 00:21:20;;;;;;;24.70;20.17;;;;;;;0.80;100.00;100966.38;5025247;28;20189;-74
2023/01/26 00:23:47;;;;;;;26.03;20.77;;;;;;;0.83;100.00;100957.19;5015298;28;20268;-73
2023/01/26 00:26:19;;;;;;;24.23;20.07;;;;;;;0.83;100.00;100951.22;5030795;28;20648;-74
2023/01/26 00:28:44;;;;;;;23.97;20.83;;;;;;;0.83;100.00;100952.09;5021297;28;20283;-74
2023/01/26 00:31:16;;;;;;;23.43;20.90;;;;;;;0.80;100.00;100951.09;5016149;28;20280;-74
2023/01/26 00:33:41;;;;;;;25.63;20.57;;;;;;;0.71;100.00;100955.03;5018952;28;20193;-76
2023/01/26 00:36:07;;;;;;;23.37;19.93;;;;;;;0.69;100.00;100960.84;5016498;28;20585;-75
2023/01/26 00:38:33;;;;;;;24.07;20.93;;;;;;;0.66;100.00;100948.00;5020686;28;20546;-73
2023/01/26 00:40:58;;;;;;;24.43;20.57;;;;;;;0.67;100.00;100939.56;5011536;28;20220;-74
2023/01/26 00:43:23;;;;;;;24.93;20.80;;;;;;;0.66;100.00;100943.75;5026307;28;20363;-74
2023/01/26 00:45:48;;;;;;;24.13;20.57;;;;;;;0.68;100.00;100938.75;5039973;28;20290;-73
2023/01/26 00:48:14;;;;;;;23.87;21.30;;;;;;;0.68;100.00;100941.28;5022778;28;20190;-73
2023/01/26 00:50:39;;;;;;;22.73;19.47;;;;;;;0.69;100.00;100937.91;5016872;28;20209;-74
2023/01/26 00:53:05;;;;;;;23.20;20.00;;;;;;;0.65;100.00;100930.97;5021576;28;20202;-73
2023/01/26 00:55:33;;;;;;;22.83;19.93;;;;;;;0.66;100.00;100938.66;5026519;28;20235;-73
2023/01/26 00:57:59;;;;;;;23.70;20.77;;;;;;;0.66;100.00;100935.25;5026673;28;20208;-72
2023/01/26 01:00:25;;;;;;;21.67;18.23;;;;;;;0.63;100.00;100940.22;5025296;28;20228;-74
2023/01/26 01:02:50;;;;;;;21.13;17.83;;;;;;;0.63;100.00;100933.44;5030825;28;20207;-74
2023/01/26 01:05:16;;;;;;;21.53;19.17;;;;;;;0.62;100.00;100924.03;5021912;28;20199;-75
2023/01/26 01:07:41;;;;;;;20.70;18.10;;;;;;;0.63;100.00;100927.47;5034546;28;20188;-75
2023/01/26 01:10:07;;;;;;;25.33;19.93;;;;;;;0.63;100.00;100927.47;5046370;28;20171;-73
2023/01/26 01:12:33;;;;;;;22.17;18.07;;;;;;;0.60;100.00;100918.91;5031899;28;20238;-74
2023/01/26 01:14:58;;;;;;;21.67;19.13;;;;;;;0.61;100.00;100912.13;5029484;28;20264;-74
2023/01/26 01:17:24;;;;;;;22.20;19.80;;;;;;;0.65;100.00;100908.03;5020573;28;20192;-74
2023/01/26 01:19:49;;;;;;;23.47;19.73;;;;;;;0.68;100.00;100910.72;5024841;28;20218;-74
2023/01/26 01:22:14;;;;;;;22.27;19.87;;;;;;;0.68;100.00;100908.16;5023704;28;20828;-76
2023/01/26 01:24:40;;;;;;;21.70;19.17;;;;;;;0.68;100.00;100913.28;5025788;28;20676;-74
2023/01/26 01:27:05;;;;;;;21.70;18.40;;;;;;;0.67;100.00;100914.94;5015818;28;20218;-73
2023/01/26 01:29:30;;;;;;;22.67;19.53;;;;;;;0.69;100.00;100905.69;5022238;28;20180;-75
2023/01/26 01:31:56;;;;;;;21.50;18.07;;;;;;;0.71;100.00;100911.72;5012379;28;20223;-73
2023/01/26 01:34:22;;;;;;;21.13;18.20;;;;;;;0.72;100.00;100904.91;5023044;28;20191;-74
2023/01/26 01:36:47;;;;;;;23.43;19.93;;;;;;;0.73;100.00;100905.00;5017279;28;20206;-74
2023/01/26 01:39:12;;;;;;;22.37;18.30;;;;;;;0.72;100.00;100907.47;5022919;28;20216;-74
2023/01/26 01:41:38;;;;;;;20.70;17.77;;;;;;;0.72;100.00;100905.81;5024657;28;20203;-74
2023/01/26 01:44:18;;;;;;;22.33;18.63;;;;;;;0.72;100.00;100900.72;5022524;28;20179;-74
2023/01/26 01:46:47;;;;;;;23.70;19.03;;;;;;;0.69;100.00;100903.13;5016698;28;20585;-73
2023/01/26 01:49:20;;;;;;;22.40;19.43;;;;;;;0.70;100.00;100898.88;5040652;28;20669;-74
2023/01/26 01:51:53;;;;;;;22.43;19.43;;;;;;;0.70;100.00;100893.78;5026434;28;20229;-74
2023/01/26 01:54:26;;;;;;;21.27;18.47;;;;;;;0.66;100.00;100894.50;5038623;28;20724;-74
2023/01/26 01:56:55;;;;;;;23.70;20.10;;;;;;;0.65;100.00;100893.59;5032803;28;20187;-73
2023/01/26 01:59:21;;;;;;;25.07;20.03;;;;;;;0.59;100.00;100901.03;5029427;28;20202;-76
2023/01/26 02:01:49;;;;;;;24.17;19.13;;;;;;;0.58;100.00;100899.28;5023421;28;20199;-77
2023/01/26 02:04:15;;;;;;;20.50;18.17;;;;;;;0.57;100.00;100900.94;5013613;28;20696;-75
2023/01/26 02:06:54;;;;;;;21.00;18.77;;;;;;;0.59;100.00;100895.94;5019946;28;20179;-75
2023/01/26 02:12:11;;;;;;;23.27;19.43;;;;;;;0.56;100.00;100898.34;5025608;28;20613;-74
2023/01/26 02:14:38;;;;;;;21.30;17.70;;;;;;;0.55;100.00;100897.44;5027836;28;20187;-74
2023/01/26 02:17:03;;;;;;;21.67;17.70;;;;;;;0.58;100.00;100891.63;5016505;28;20302;-74
2023/01/26 02:19:31;;;;;;;25.33;19.17;;;;;;;0.61;100.00;100894.28;5014295;28;20215;-74
2023/01/26 02:22:03;;;;;;;21.43;18.53;;;;;;;0.63;100.00;100889.28;5017373;28;20227;-74
2023/01/26 02:24:36;;;;;;;22.80;18.63;;;;;;;0.67;100.00;100894.56;5021835;28;20176;-73
2023/01/26 02:27:01;;;;;;;22.83;19.63;;;;;;;0.66;100.00;100894.50;5023615;28;20240;-76
2023/01/26 02:29:27;;;;;;;22.33;18.47;;;;;;;0.65;100.00;100883.41;5032502;28;20192;-74
2023/01/26 02:31:53;;;;;;;21.03;18.73;;;;;;;0.64;100.00;100884.22;5021074;28;20218;-74
2023/01/26 02:34:18;;;;;;;22.10;18.43;;;;;;;0.64;100.00;100894.41;5023081;28;20183;-73
2023/01/26 02:36:44;;;;;;;24.90;20.33;;;;;;;0.65;100.00;100895.31;5029333;28;20665;-78
2023/01/26 02:39:33;;;;;;;22.43;18.93;;;;;;;0.61;100.00;100891.72;5032521;28;20191;-72
2023/01/26 02:44:43;;;;;;;24.97;20.97;;;;;;;0.56;100.00;100888.16;5025310;28;20193;-74
2023/01/26 02:47:13;;;;;;;23.37;19.77;;;;;;;0.54;100.00;100890.59;5022773;28;20552;-73
2023/01/26 02:49:49;;;;;;;22.07;19.33;;;;;;;0.56;100.00;100886.47;5022469;28;20602;-74
2023/01/26 02:52:17;;;;;;;22.87;19.67;;;;;;;0.55;100.00;100879.63;5011933;28;20236;-75
2023/01/26 02:57:27;;;;;;;23.90;19.77;;;;;;;0.51;100.00;100885.41;5013983;28;20191;-74
2023/01/26 02:59:52;;;;;;;27.47;20.73;;;;;;;0.53;100.00;100875.28;5020267;28;20210;-74
2023/01/26 03:02:18;;;;;;;23.33;19.90;;;;;;;0.51;100.00;100880.31;5028261;28;20192;-73
2023/01/26 03:04:43;;;;;;;24.87;20.73;;;;;;;0.49;100.00;100881.94;5025336;28;20325;-74
2023/01/26 03:07:09;;;;;;;24.00;20.23;;;;;;;0.50;100.00;100880.25;5023447;28;20946;-75
2023/01/26 03:09:34;;;;;;;24.73;21.37;;;;;;;0.49;100.00;100876.84;5019307;28;20644;-73
2023/01/26 03:12:00;;;;;;;24.50;20.83;;;;;;;0.50;100.00;100865.84;5015744;28;20916;-74
2023/01/26 03:14:25;;;;;;;22.83;19.57;;;;;;;0.53;100.00;100870.19;5018812;28;20306;-75
2023/01/26 03:16:51;;;;;;;22.80;18.37;;;;;;;0.54;100.00;100860.03;5035474;28;20182;-73
2023/01/26 03:27:41;;;;;;;21.73;18.20;;;;;;;0.67;100.00;100860.56;5014128;28;20319;-72
2023/01/26 03:30:07;;;;;;;24.10;20.13;;;;;;;0.68;100.00;100863.16;5037384;28;20190;-74
2023/01/26 03:32:33;;;;;;;22.87;19.67;;;;;;;0.70;100.00;100870.88;5024152;28;20215;-75
2023/01/26 03:34:58;;;;;;;21.23;18.47;;;;;;;0.71;100.00;100868.41;5026749;28;20183;-74
2023/01/26 03:37:23;;;;;;;24.03;19.50;;;;;;;0.74;100.00;100871.06;5017801;28;20195;-74
2023/01/26 03:56:31;;;;;;;20.97;18.20;;;;;;;0.79;100.00;100855.09;5030151;28;20203;-74
2023/01/26 03:59:07;;;;;;;20.80;17.80;;;;;;;0.82;100.00;100853.56;5017867;28;20183;-74
2023/01/26 04:01:33;;;;;;;20.07;17.80;;;;;;;0.83;100.00;100849.31;5017554;28;20690;-73
2023/01/26 04:09:29;;;;;;;21.90;19.20;;;;;;;0.84;100.00;100844.25;5020742;28;20219;-74
2023/01/26 04:11:55;;;;;;;21.17;18.87;;;;;;;0.84;100.00;100843.41;5025908;28;20219;-74
2023/01/26 04:22:44;;;;;;;23.47;19.33;;;;;;;0.84;100.00;100833.22;5024479;28;20266;-74
2023/01/26 04:25:14;;;;;;;21.60;18.03;;;;;;;0.82;100.00;100829.72;5021467;28;20192;-74
2023/01/26 04:27:41;;;;;;;22.10;18.13;;;;;;;0.82;100.00;100832.28;5025154;28;20230;-73
2023/01/26 04:30:08;;;;;;;21.33;18.50;;;;;;;0.83;100.00;100827.22;5012920;28;20210;-76
2023/01/26 04:32:33;;;;;;;21.43;18.37;;;;;;;0.83;100.00;100823.81;5014119;28;20277;-74
2023/01/26 04:34:58;;;;;;;22.53;18.53;;;;;;;0.82;100.00;100824.63;5019407;28;20183;-74
2023/01/26 04:37:24;;;;;;;21.67;18.37;;;;;;;0.80;100.00;100826.25;5017274;28;20192;-73
2023/01/26 04:39:49;;;;;;;23.33;19.37;;;;;;;0.77;100.00;100819.38;5021614;28;20204;-74
2023/01/26 04:42:14;;;;;;;21.03;18.83;;;;;;;0.78;100.00;100817.66;5018417;28;20252;-75
2023/01/26 04:44:39;;;;;;;21.20;18.30;;;;;;;0.80;100.00;100818.59;5030098;28;20221;-74
2023/01/26 04:47:05;;;;;;;22.40;18.53;;;;;;;0.79;100.00;100817.75;5029378;28;20215;-73
2023/01/26 04:49:30;;;;;;;20.70;17.73;;;;;;;0.81;100.00;100823.78;5017905;28;20196;-73
2023/01/26 04:51:55;;;;;;;22.33;18.67;;;;;;;0.81;100.00;100822.91;5022303;28;20207;-76
2023/01/26 04:54:21;;;;;;;23.17;20.20;;;;;;;0.81;100.00;100817.78;5016080;28;20188;-75
2023/01/26 04:56:46;;;;;;;23.07;19.00;;;;;;;0.81;100.00;100810.16;5016824;28;20175;-74
2023/01/26 04:59:12;;;;;;;24.37;20.13;;;;;;;0.83;100.00;100808.53;5017436;28;20321;-74
2023/01/26 05:01:37;;;;;;;23.43;19.00;;;;;;;0.84;100.00;100812.81;5025278;28;20237;-75
2023/01/26 05:04:03;;;;;;;23.43;19.57;;;;;;;0.84;100.00;100813.69;5017129;28;20189;-74
2023/01/26 05:06:29;;;;;;;23.47;19.13;;;;;;;0.87;100.00;100811.25;5015939;28;20657;-74
2023/01/26 05:08:55;;;;;;;24.17;20.37;;;;;;;0.88;100.00;100807.06;5022089;28;20195;-74
2023/01/26 05:11:20;;;;;;;21.87;18.80;;;;;;;0.88;100.00;100810.44;5024146;28;20276;-74
2023/01/26 05:13:46;;;;;;;24.50;19.80;;;;;;;0.89;100.00;100809.66;5016746;28;21006;-75
2023/01/26 05:16:13;;;;;;;22.60;19.67;;;;;;;0.88;100.00;100804.50;5021251;28;20215;-75
2023/01/26 05:18:38;;;;;;;22.73;19.87;;;;;;;0.87;100.00;100805.31;5013620;28;20794;-73
2023/01/26 05:21:04;;;;;;;24.03;20.23;;;;;;;0.86;100.00;100804.44;5017119;28;20227;-73
2023/01/26 05:23:29;;;;;;;24.13;20.30;;;;;;;0.86;100.00;100801.03;5025197;28;20277;-74
2023/01/26 05:25:55;;;;;;;24.93;20.17;;;;;;;0.87;100.00;100807.84;5041695;28;20256;-73
2023/01/26 05:28:20;;;;;;;23.57;19.93;;;;;;;0.86;100.00;100804.44;5049125;28;20212;-73
2023/01/26 05:30:46;;;;;;;22.57;18.30;;;;;;;0.86;100.00;100809.53;5023065;28;20186;-74
2023/01/26 05:33:12;;;;;;;22.97;19.87;;;;;;;0.86;100.00;100808.66;5029464;28;20211;-73
2023/01/26 05:35:37;;;;;;;25.60;19.83;;;;;;;0.84;100.00;100805.19;5027498;28;20644;-74
2023/01/26 05:38:02;;;;;;;24.73;20.27;;;;;;;0.82;100.00;100810.22;5029185;28;20640;-74
2023/01/26 05:40:28;;;;;;;24.60;20.10;;;;;;;0.82;100.00;100805.13;5031933;28;20227;-74
2023/01/26 05:42:54;;;;;;;21.93;18.20;;;;;;;0.84;100.00;100803.50;5034150;28;20659;-73
2023/01/26 05:45:19;;;;;;;25.13;20.10;;;;;;;0.84;100.00;100800.94;5033677;28;20568;-74
2023/01/26 05:47:45;;;;;;;23.10;19.00;;;;;;;0.86;100.00;100804.44;5029499;28;20195;-73
2023/01/26 05:50:12;;;;;;;24.37;19.93;;;;;;;0.88;100.00;100794.31;5037093;28;20183;-74
2023/01/26 05:52:37;;;;;;;25.60;20.27;;;;;;;0.88;100.00;100799.41;5028977;28;20191;-73
2023/01/26 05:55:04;;;;;;;24.17;19.90;;;;;;;0.89;100.00;100802.00;5015235;28;20854;-74
2023/01/26 05:57:30;;;;;;;25.83;21.63;;;;;;;0.89;100.00;100796.06;5021526;28;20260;-74
2023/01/26 05:59:55;;;;;;;26.00;21.33;;;;;;;0.86;100.00;100796.78;5016948;28;20231;-74
2023/01/26 06:02:20;;;;;;;24.50;20.17;;;;;;;0.83;100.00;100790.69;5035416;28;20208;-73
2023/01/26 06:04:46;;;;;;;25.90;20.53;;;;;;;0.83;100.00;100801.75;5039914;28;20234;-75
2023/01/26 06:07:12;;;;;;;24.00;19.47;;;;;;;0.83;100.00;100804.28;5019623;28;20180;-72
2023/01/26 06:09:38;;;;;;;23.90;20.07;;;;;;;0.81;100.00;100795.75;5035569;28;20181;-73
2023/01/26 06:12:05;;;;;;;29.90;22.87;;;;;;;0.79;100.00;100794.81;5040578;28;20203;-72
2023/01/26 06:14:30;;;;;;;27.93;22.27;;;;;;;0.78;100.00;100793.06;5032177;28;20266;-74
2023/01/26 06:16:55;;;;;;;28.47;22.17;;;;;;;0.79;100.00;100794.81;5028664;28;20270;-73
2023/01/26 06:19:21;;;;;;;30.50;22.80;;;;;;;0.80;100.00;100800.78;5013764;28;20203;-74
2023/01/26 06:21:46;;;;;;;26.13;21.33;;;;;;;0.73;100.00;100804.75;5024261;28;20210;-74
2023/01/26 06:24:11;;;;;;;30.30;24.03;;;;;;;0.68;100.00;100809.69;5025144;28;20193;-73
2023/01/26 06:26:38;;;;;;;30.47;22.23;;;;;;;0.67;100.00;100815.56;5017903;28;20715;-73
2023/01/26 06:29:03;;;;;;;32.73;23.03;;;;;;;0.63;100.00;100806.06;5023094;28;20177;-74
2023/01/26 06:31:29;;;;;;;25.90;20.57;;;;;;;0.57;100.00;100811.78;5010456;28;20273;-74
2023/01/26 06:33:54;;;;;;;27.23;21.30;;;;;;;0.54;100.00;100809.09;5023683;28;20196;-72
2023/01/26 06:36:20;;;;;;;30.03;22.60;;;;;;;0.53;100.00;100807.38;5017005;28;20215;-74
2023/01/26 06:38:51;;;;;;;32.43;23.33;;;;;;;0.52;100.00;100813.31;5037874;28;20265;-73
2023/01/26 06:41:17;;;;;;;28.33;22.20;;;;;;;0.51;100.00;100814.09;5017110;28;20209;-75
2023/01/26 06:43:45;;;;;;;27.13;22.10;;;;;;;0.51;100.00;100809.00;5023747;28;20180;-73
2023/01/26 06:46:11;;;;;;;26.33;20.17;;;;;;;0.55;100.00;100810.00;5019250;28;20186;-74
2023/01/26 06:48:37;;;;;;;29.73;22.93;;;;;;;0.57;100.00;100814.34;5023578;28;20181;-73
2023/01/26 06:51:15;;;;;;;28.70;21.70;;;;;;;0.58;100.00;100808.44;5016798;28;20286;-74
2023/01/26 06:53:46;;;;;;;30.83;23.47;;;;;;;0.61;100.00;100815.31;5017659;28;20289;-73
2023/01/26 06:56:11;;;;;;;29.77;22.83;;;;;;;0.59;100.00;100820.38;5030572;28;20184;-74
2023/01/26 06:58:36;;;;;;;32.37;23.37;;;;;;;0.58;100.00;100815.22;5027819;28;20639;-73
2023/01/26 07:01:02;;;;;;;29.07;23.50;;;;;;;0.53;100.00;100819.25;5028378;28;20213;-74
2023/01/26 07:03:27;;;;;;;31.23;23.70;;;;;;;0.52;100.00;100820.06;5027570;28;20257;-75
2023/01/26 07:05:52;;;;;;;33.87;22.83;;;;;;;0.51;100.00;100823.41;5026467;28;20179;-73
2023/01/26 07:08:18;;;;;;;30.20;22.77;;;;;;;0.48;100.00;100818.19;5028785;28;20179;-73
2023/01/26 07:10:43;;;;;;;29.70;23.40;;;;;;;0.44;100.00;100819.75;5026656;28;20610;-73
2023/01/26 07:13:08;;;;;;;32.13;23.40;;;;;;;0.41;100.00;100823.03;5035257;28;20203;-73
2023/01/26 07:15:34;;;;;;;30.63;23.13;;;;;;;0.41;100.00;100830.69;5028663;28;20185;-74
2023/01/26 07:18:00;;;;;;;31.83;22.70;;;;;;;0.40;100.00;100834.03;5028301;28;20241;-72
2023/01/26 07:20:25;;;;;;;34.10;23.37;;;;;;;0.39;100.00;100829.75;5012317;28;20204;-73
2023/01/26 07:22:52;;;;;;;31.63;23.27;;;;;;;0.40;100.00;100828.94;5008671;28;20199;-75
2023/01/26 07:25:18;;;;;;;31.63;23.40;;;;;;;0.39;100.00;100823.75;5015584;28;20227;-74
2023/01/26 07:27:43;;;;;;;28.23;21.80;;;;;;;0.36;100.00;100831.31;5026435;28;20267;-73
2023/01/26 07:30:11;;;;;;;29.37;22.03;;;;;;;0.36;100.00;100826.22;5027278;28;20280;-74
2023/01/26 07:32:36;;;;;;;33.67;23.13;;;;;;;0.34;100.00;100821.03;5037982;28;20701;-74
2023/01/26 07:35:02;;;;;;;33.20;23.90;;;;;;;0.30;100.00;100829.38;5046888;28;20205;-73
2023/01/26 07:37:28;;;;;;;31.03;23.17;;;;;;;0.27;100.00;100831.78;5029224;28;20216;-74
2023/01/26 07:39:54;;;;;;;31.27;22.80;;;;;;;0.28;100.00;100833.53;5039462;28;20314;-72
2023/01/26 07:42:20;;;;;;;31.33;21.93;;;;;;;0.30;100.00;100834.47;5046518;28;20599;-73
2023/01/26 07:44:45;;;;;;;29.70;22.23;;;;;;;0.25;100.00;100831.72;5018234;28;20188;-73
2023/01/26 07:47:10;;;;;;;32.13;23.43;;;;;;;0.23;100.00;100837.53;5033339;28;20190;-72
2023/01/26 07:49:36;;;;;;;30.50;22.13;;;;;;;0.20;100.00;100823.03;5023290;28;20179;-74
2023/01/26 07:52:01;;;;;;;29.03;21.90;;;;;;;0.21;100.00;100828.97;5015987;28;20235;-73
2023/01/26 07:54:27;;;;;;;33.67;23.90;;;;;;;0.19;100.00;100822.94;5013988;28;20190;-74
2023/01/26 07:56:53;;;;;;;31.50;23.33;;;;;;;0.18;100.00;100827.19;5019502;28;20193;-73
2023/01/26 07:59:22;;;;;;;32.33;23.47;;;;;;;0.16;100.00;100831.34;5020842;28;20667;-73
2023/01/26 08:01:48;;;;;;;32.30;22.77;;;;;;;0.15;100.00;100832.13;5011735;28;20210;-74
2023/01/26 08:04:14;;;;;;;31.53;23.63;;;;;;;0.16;100.00;100841.50;5012505;28;20186;-73
2023/01/26 08:06:39;;;;;;;32.03;23.60;;;;;;;0.19;100.00;100838.22;5034725;28;20185;-74
2023/01/26 08:09:04;;;;;;;30.50;22.80;;;;;;;0.16;100.00;100831.34;5040492;28;20186;-73
2023/01/26 08:11:29;;;;;;;30.13;22.90;;;;;;;0.18;100.00;100842.44;5040044;28;21110;-73
2023/01/26 08:13:55;;;;;;;31.70;23.07;;;;;;;0.21;100.00;100840.03;5023357;28;20230;-73
2023/01/26 08:16:21;;;;;;;30.93;21.97;;;;;;;0.23;100.00;100842.63;5018591;28;20190;-74
2023/01/26 08:18:47;;;;;;;30.00;22.33;;;;;;;0.23;100.00;100847.72;5032534;28;20178;-74
2023/01/26 08:21:14;;;;;;;32.50;22.90;;;;;;;0.22;100.00;100838.34;5039551;28;20201;-73
2023/01/26 08:23:39;;;;;;;33.10;23.53;;;;;;;0.25;100.00;100841.88;5013621;28;20185;-74
2023/01/26 08:26:08;;;;;;;34.37;22.70;;;;;;;0.21;100.00;100854.44;5019520;28;20183;-72
2023/01/26 08:28:35;;;;;;;33.90;23.83;;;;;;;0.17;100.00;100855.97;5028236;28;20186;-73
2023/01/26 08:31:06;;;;;;;32.30;23.90;;;;;;;0.17;100.00;100850.88;5024089;28;20635;-74
2023/01/26 08:33:32;;;;;;;35.30;24.07;;;;;;;0.19;100.00;100858.59;5028839;28;20207;-74
2023/01/26 08:36:05;;;;;;;34.47;23.53;;;;;;;0.18;100.00;100861.94;5031023;28;20548;-75
2023/01/26 08:38:32;;;;;;;30.87;22.23;;;;;;;0.13;100.00;100849.91;5021608;28;20240;-75
2023/01/26 08:40:58;;;;;;;30.27;22.70;;;;;;;0.16;100.00;100854.25;5025828;28;20758;-73
2023/01/26 08:43:24;;;;;;;32.67;23.67;;;;;;;0.15;100.00;100855.03;5012490;28;20211;-74
2023/01/26 08:45:49;;;;;;;32.30;23.50;;;;;;;0.11;100.00;100851.50;5019393;28;20237;-72
2023/01/26 08:48:15;;;;;;;31.93;23.33;;;;;;;0.11;100.00;100855.72;5035799;28;20188;-72
2023/01/26 08:50:40;;;;;;;32.03;21.73;;;;;;;0.11;100.00;100854.06;5018749;28;20171;-74
2023/01/26 08:53:06;;;;;;;30.80;20.40;;;;;;;0.12;100.00;100848.16;5014056;28;20242;-75
2023/01/26 08:55:32;;;;;;;29.20;20.33;;;;;;;0.14;100.00;100860.94;5033073;28;20185;-72
2023/01/26 08:57:57;;;;;;;26.90;20.77;;;;;;;0.14;100.00;100854.19;5029812;28;20215;-74
2023/01/26 09:00:23;;;;;;;27.67;20.97;;;;;;;0.15;100.00;100853.34;5020119;28;20224;-74
2023/01/26 09:02:49;;;;;;;28.33;19.97;;;;;;;0.18;100.00;100857.72;5023997;28;20230;-74
2023/01/26 09:05:15;;;;;;;27.33;20.20;;;;;;;0.17;100.00;100865.28;5026721;28;20193;-70
2023/01/26 09:07:40;;;;;;;26.87;19.40;;;;;;;0.12;100.00;100860.88;5021732;28;20191;-71
2023/01/26 09:10:06;;;;;;;33.77;23.73;;;;;;;0.15;100.00;100861.00;5024169;28;20200;-71
2023/01/26 09:12:32;;;;;;;29.07;21.57;;;;;;;0.15;100.00;100852.50;5034624;28;20210;-72
2023/01/26 09:14:57;;;;;;;29.23;20.57;;;;;;;0.19;100.00;100853.50;5026265;28;20721;-72
2023/01/26 09:17:22;;;;;;;29.43;22.17;;;;;;;0.23;100.00;100860.47;5025362;28;20288;-73
2023/01/26 09:19:47;;;;;;;26.60;19.13;;;;;;;0.21;100.00;100862.06;5039552;28;20187;-71
2023/01/26 09:22:13;;;;;;;25.63;18.03;;;;;;;0.18;100.00;100857.72;5025691;28;20209;-72
2023/01/26 09:24:38;;;;;;;24.23;18.60;;;;;;;0.20;100.00;100855.22;5027047;28;20163;-72
2023/01/26 09:27:03;;;;;;;24.67;18.23;;;;;;;0.26;100.00;100865.69;5021360;28;20215;-72
2023/01/26 09:29:29;;;;;;;23.77;17.93;;;;;;;0.29;100.00;100860.72;5016439;28;20268;-73
2023/01/26 09:31:54;;;;;;;26.40;18.60;;;;;;;0.30;100.00;100858.25;5037099;28;20259;-72
2023/01/26 09:34:19;;;;;;;27.33;19.37;;;;;;;0.34;100.00;100858.38;5030025;28;20189;-75
2023/01/26 09:36:45;;;;;;;27.30;19.30;;;;;;;0.30;100.00;100858.25;5025019;28;20182;-73
2023/01/26 09:39:10;;;;;;;26.53;19.17;;;;;;;0.29;100.00;100859.03;5032482;28;20662;-73
2023/01/26 09:42:16;;;;;;;27.23;18.30;;;;;;;0.36;100.00;100869.50;5030887;28;20210;-73
2023/01/26 09:45:16;;;;;;;22.87;16.87;;;;;;;0.39;100.00;100864.50;5028215;28;20191;-74
2023/01/26 09:48:10;;;;;;;20.83;16.20;;;;;;;0.37;100.00;100864.44;5020962;28;20579;-73
2023/01/26 09:50:47;;;;;;;22.23;16.87;;;;;;;0.41;100.00;100863.78;5031375;28;20188;-76
2023/01/26 09:53:19;;;;;;;23.20;17.47;;;;;;;0.49;100.00;100863.22;5039378;28;20202;-73
2023/01/26 09:55:45;;;;;;;17.60;13.70;;;;;;;0.53;100.00;100857.44;5030016;28;20184;-74
2023/01/26 09:58:20;;;;;;;16.80;12.07;;;;;;;0.50;100.00;100855.66;5036766;28;21566;-75
2023/01/26 10:00:49;;;;;;;15.07;10.83;;;;;;;0.47;100.00;100858.06;5030743;28;20302;-73
2023/01/26 10:03:40;;;;;;;15.93;12.13;;;;;;;0.48;100.00;100859.81;5026545;28;20253;-73
2023/01/26 10:06:14;;;;;;;16.07;12.50;;;;;;;0.50;100.00;100858.22;5033073;28;20229;-73
2023/01/26 10:08:42;;;;;;;17.33;13.77;;;;;;;0.54;100.00;100862.59;5037661;28;20186;-73
2023/01/26 10:11:20;;;;;;;20.27;15.10;;;;;;;0.63;100.00;100864.66;5032515;28;21140;-73
2023/01/26 10:13:53;;;;;;;17.93;14.47;;;;;;;0.64;100.00;100863.00;5034958;28;20189;-73
2023/01/26 10:16:18;;;;;;;18.23;13.53;;;;;;;0.70;100.00;100863.22;5024118;28;20193;-73
2023/01/26 10:19:12;;;;;;;17.03;13.77;;;;;;;0.67;100.00;100858.88;5038760;28;20518;-73
2023/01/26 10:21:43;;;;;;;16.47;12.67;;;;;;;0.65;100.00;100872.38;5036109;28;20213;-73
2023/01/26 10:24:10;;;;;;;18.23;14.43;;;;;;;0.66;100.00;100866.47;5037517;28;20213;-73
2023/01/26 10:26:36;;;;;;;16.37;14.40;;;;;;;0.58;100.00;100864.47;5038124;28;20183;-73
2023/01/26 10:29:02;;;;;;;19.13;14.20;;;;;;;0.58;100.00;100861.06;5034528;28;20197;-73
2023/01/26 10:31:31;;;;;;;17.80;14.67;;;;;;;0.57;100.00;100850.00;5037326;28;20182;-74
2023/01/26 10:34:08;;;;;;;18.23;15.20;;;;;;;0.57;100.00;100859.31;5032012;28;20202;-73
2023/01/26 10:36:34;;;;;;;19.47;14.40;;;;;;;0.56;100.00;100852.50;5030280;28;20179;-73
2023/01/26 10:39:07;;;;;;;15.57;12.83;;;;;;;0.59;100.00;100850.06;5028860;28;20230;-73
2023/01/26 10:41:33;;;;;;;18.77;15.20;;;;;;;0.53;100.00;100855.75;5035043;28;20222;-72
2023/01/26 10:44:01;;;;;;;15.17;13.00;;;;;;;0.50;100.00;100845.47;5024316;28;20186;-73
2023/01/26 10:46:41;;;;;;;16.13;12.70;;;;;;;0.50;100.00;100842.94;5022328;28;20194;-73
2023/01/26 10:49:18;;;;;;;14.67;11.87;;;;;;;0.50;100.00;100834.41;5031954;28;20183;-74
2023/01/26 10:52:03;;;;;;;15.27;12.97;;;;;;;0.53;100.00;100837.06;5021872;28;20289;-74
2023/01/26 10:54:29;;;;;;;15.63;12.90;;;;;;;0.54;100.00;100842.22;5051024;28;20183;-73
2023/01/26 10:57:03;;;;;;;14.33;11.70;;;;;;;0.52;100.00;100833.69;5034064;28;20241;-72
2023/01/26 10:59:55;;;;;;;17.27;13.30;;;;;;;0.54;100.00;100837.13;5036190;28;20267;-72
2023/01/26 11:02:27;;;;;;;17.10;13.63;;;;;;;0.52;100.00;100826.03;5038850;28;20237;-72
2023/01/26 11:05:07;;;;;;;17.13;13.50;;;;;;;0.53;100.00;100830.28;5039499;28;20186;-73
2023/01/26 11:07:38;;;;;;;14.83;11.83;;;;;;;0.56;100.00;100825.31;5036132;28;20199;-72
2023/01/26 11:10:28;;;;;;;15.83;12.40;;;;;;;0.58;100.00;100828.81;5021470;28;20231;-72
2023/01/26 11:13:18;;;;;;;17.27;13.23;;;;;;;0.58;100.00;100827.97;5030407;28;20211;-72
2023/01/26 11:15:46;;;;;;;16.07;13.20;;;;;;;0.57;100.00;100828.75;5030343;28;20187;-73
2023/01/26 11:18:28;;;;;;;17.27;13.60;;;;;;;0.61;100.00;100822.97;5034882;28;20287;-73
2023/01/26 11:20:58;;;;;;;16.60;13.50;;;;;;;0.65;100.00;100811.25;5032904;28;20206;-73
2023/01/26 11:23:39;;;;;;;16.43;13.57;;;;;;;0.68;100.00;100817.31;5033883;28;20208;-74
2023/01/26 11:26:25;;;;;;;14.53;12.27;;;;;;;0.73;100.00;100818.38;5015379;28;20183;-73
2023/01/26 11:29:27;;;;;;;15.67;13.00;;;;;;;0.78;100.00;100804.94;5014220;28;20868;-75
2023/01/26 11:32:12;;;;;;;14.97;11.67;;;;;;;0.84;100.00;100807.72;5022250;28;20206;-73
2023/01/26 11:34:43;;;;;;;14.27;12.00;;;;;;;0.90;100.00;100805.44;5019562;28;20183;-73
2023/01/26 11:37:28;;;;;;;14.87;12.20;;;;;;;0.93;100.00;100805.53;5032857;28;20297;-75
2023/01/26 11:40:12;;;;;;;13.33;11.77;;;;;;;0.93;100.00;100804.69;5023480;28;20767;-73
2023/01/26 11:43:07;;;;;;;14.40;11.40;;;;;;;0.85;100.00;100800.13;5017980;28;20285;-74
2023/01/26 11:45:40;;;;;;;12.13;10.93;;;;;;;0.84;100.00;100802.63;5027268;28;20187;-73
2023/01/26 11:48:37;;;;;;;13.47;11.03;;;;;;;0.77;100.00;100796.44;5023321;28;20204;-75
2023/01/26 11:51:15;;;;;;;12.87;11.07;;;;;;;0.74;100.00;100791.22;5024830;28;20234;-73
2023/01/26 11:53:43;;;;;;;13.07;11.77;;;;;;;0.70;100.00;100789.34;5025583;28;20190;-75
2023/01/26 11:56:23;;;;;;;13.90;12.37;;;;;;;0.71;100.00;100783.44;5021385;28;20184;-72
2023/01/26 11:59:02;;;;;;;13.93;11.97;;;;;;;0.68;100.00;100781.66;5025160;28;20209;-73
2023/01/26 12:01:35;;;;;;;12.83;11.30;;;;;;;0.66;100.00;100778.16;5037846;28;20597;-72
2023/01/26 12:04:00;;;;;;;13.23;11.63;;;;;;;0.66;100.00;100779.88;5021966;28;21947;-75